sensor_id;sensor_type;location;lat;lon;timestamp;pressure;altitude;pressure_sealevel;temperature;humidity
50368;BME280;36281;34.132;-118.018;2023-04-25T00:01:12;99591.09;;;24.47;47.46
50368;BME280;36281;34.132;-118.018;2023-04-25T00:03:42;99581.69;;;24.45;47.51
50368;BME280;36281;34.132;-118.018;2023-04-25T00:06:11;99589.94;;;24.40;47.69
50368;BME280;36281;34.132;-118.018;2023-04-25T00:08:40;99588.81;;;24.41;47.79
50368;BME280;36281;34.132;-118.018;2023-04-25T00:11:09;99588.13;;;24.35;47.61
50368;BME280;36281;34.132;-118.018;2023-04-25T00:13:39;99595.09;;;24.28;47.81
50368;BME280;36281;34.132;-118.018;2023-04-25T00:16:10;99589.81;;;24.22;47.71
50368;BME280;36281;34.132;-118.018;2023-04-25T00:18:42;99581.81;;;24.17;47.94
50368;BME280;36281;34.132;-118.018;2023-04-25T00:21:11;99589.56;;;24.10;48.01
50368;BME280;36281;34.132;-118.018;2023-04-25T00:23:40;99585.50;;;23.99;48.29
50368;BME280;36281;34.132;-118.018;2023-04-25T00:26:09;99585.16;;;23.92;48.27
50368;BME280;36281;34.132;-118.018;2023-04-25T00:28:39;99588.59;;;23.84;48.48
50368;BME280;36281;34.132;-118.018;2023-04-25T00:31:08;99592.69;;;23.81;49.05
50368;BME280;36281;34.132;-118.018;2023-04-25T00:33:37;99598.84;;;23.73;49.02
50368;BME280;36281;34.132;-118.018;2023-04-25T00:36:09;99593.84;;;23.66;49.07
50368;BME280;36281;34.132;-118.018;2023-04-25T00:38:38;99598.03;;;23.59;49.54
50368;BME280;36281;34.132;-118.018;2023-04-25T00:41:07;99596.69;;;23.47;49.58
50368;BME280;36281;34.132;-118.018;2023-04-25T00:43:37;99583.06;;;23.39;49.60
50368;BME280;36281;34.132;-118.018;2023-04-25T00:46:06;99602.91;;;23.34;49.85
50368;BME280;36281;34.132;-118.018;2023-04-25T00:48:35;99595.81;;;23.25;50.59
50368;BME280;36281;34.132;-118.018;2023-04-25T00:51:04;99599.50;;;23.15;50.19
50368;BME280;36281;34.132;-118.018;2023-04-25T00:53:35;99601.41;;;23.01;50.71
50368;BME280;36281;34.132;-118.018;2023-04-25T00:56:04;99600.03;;;22.89;51.10
50368;BME280;36281;34.132;-118.018;2023-04-25T00:58:34;99600.66;;;22.81;51.31
50368;BME280;36281;34.132;-118.018;2023-04-25T01:01:03;99604.88;;;22.74;51.90
50368;BME280;36281;34.132;-118.018;2023-04-25T01:03:33;99606.06;;;22.67;52.07
50368;BME280;36281;34.132;-118.018;2023-04-25T01:06:05;99608.34;;;22.60;52.42
50368;BME280;36281;34.132;-118.018;2023-04-25T01:08:36;99603.84;;;22.56;52.58
50368;BME280;36281;34.132;-118.018;2023-04-25T01:11:06;99602.34;;;22.50;52.38
50368;BME280;36281;34.132;-118.018;2023-04-25T01:13:35;99600.91;;;22.38;52.54
50368;BME280;36281;34.132;-118.018;2023-04-25T01:16:05;99594.28;;;22.31;52.85
50368;BME280;36281;34.132;-118.018;2023-04-25T01:18:34;99601.47;;;22.22;53.01
50368;BME280;36281;34.132;-118.018;2023-04-25T01:21:08;99594.56;;;22.15;53.61
50368;BME280;36281;34.132;-118.018;2023-04-25T01:23:39;99590.31;;;22.09;53.92
50368;BME280;36281;34.132;-118.018;2023-04-25T01:26:09;99606.56;;;22.04;53.77
50368;BME280;36281;34.132;-118.018;2023-04-25T01:28:39;99604.22;;;21.98;54.10
50368;BME280;36281;34.132;-118.018;2023-04-25T01:31:12;99603.09;;;21.85;54.18
50368;BME280;36281;34.132;-118.018;2023-04-25T01:33:41;99608.03;;;21.78;54.46
50368;BME280;36281;34.132;-118.018;2023-04-25T01:36:13;99612.19;;;21.70;54.74
50368;BME280;36281;34.132;-118.018;2023-04-25T01:38:43;99613.13;;;21.60;55.04
50368;BME280;36281;34.132;-118.018;2023-04-25T01:41:13;99607.03;;;21.55;55.53
50368;BME280;36281;34.132;-118.018;2023-04-25T01:43:42;99616.28;;;21.49;55.86
50368;BME280;36281;34.132;-118.018;2023-04-25T01:46:11;99611.53;;;21.40;56.02
50368;BME280;36281;34.132;-118.018;2023-04-25T01:48:41;99612.97;;;21.28;56.19
50368;BME280;36281;34.132;-118.018;2023-04-25T01:51:12;99623.56;;;21.24;56.73
50368;BME280;36281;34.132;-118.018;2023-04-25T01:53:41;99618.84;;;21.11;56.67
50368;BME280;36281;34.132;-118.018;2023-04-25T01:56:11;99622.63;;;21.10;56.98
50368;BME280;36281;34.132;-118.018;2023-04-25T01:58:40;99630.78;;;21.05;57.47
50368;BME280;36281;34.132;-118.018;2023-04-25T02:01:09;99633.78;;;20.98;57.77
50368;BME280;36281;34.132;-118.018;2023-04-25T02:03:38;99638.22;;;20.89;57.75
50368;BME280;36281;34.132;-118.018;2023-04-25T02:06:08;99637.97;;;20.85;58.17
50368;BME280;36281;34.132;-118.018;2023-04-25T02:08:38;99636.44;;;20.79;58.52
50368;BME280;36281;34.132;-118.018;2023-04-25T02:11:07;99641.63;;;20.71;58.57
50368;BME280;36281;34.132;-118.018;2023-04-25T02:13:36;99640.34;;;20.63;58.78
50368;BME280;36281;34.132;-118.018;2023-04-25T02:16:06;99642.28;;;20.57;59.01
50368;BME280;36281;34.132;-118.018;2023-04-25T02:18:35;99647.19;;;20.50;59.31
50368;BME280;36281;34.132;-118.018;2023-04-25T02:21:05;99649.41;;;20.38;59.70
50368;BME280;36281;34.132;-118.018;2023-04-25T02:23:35;99642.19;;;20.33;60.11
50368;BME280;36281;34.132;-118.018;2023-04-25T02:26:05;99648.97;;;20.26;60.16
50368;BME280;36281;34.132;-118.018;2023-04-25T02:28:34;99646.63;;;20.19;60.30
50368;BME280;36281;34.132;-118.018;2023-04-25T02:31:04;99648.78;;;20.12;60.86
50368;BME280;36281;34.132;-118.018;2023-04-25T02:33:33;99653.41;;;20.06;61.60
50368;BME280;36281;34.132;-118.018;2023-04-25T02:36:03;99643.78;;;20.00;62.07
50368;BME280;36281;34.132;-118.018;2023-04-25T02:38:32;99653.47;;;19.96;62.23
50368;BME280;36281;34.132;-118.018;2023-04-25T02:41:01;99662.66;;;19.90;62.29
50368;BME280;36281;34.132;-118.018;2023-04-25T02:43:32;99660.28;;;19.78;62.60
50368;BME280;36281;34.132;-118.018;2023-04-25T02:46:01;99667.88;;;19.71;62.68
50368;BME280;36281;34.132;-118.018;2023-04-25T02:48:30;99666.25;;;19.70;62.97
50368;BME280;36281;34.132;-118.018;2023-04-25T02:50:59;99675.41;;;19.59;62.96
50368;BME280;36281;34.132;-118.018;2023-04-25T02:53:28;99667.94;;;19.46;63.39
50368;BME280;36281;34.132;-118.018;2023-04-25T02:55:57;99680.00;;;19.48;63.44
50368;BME280;36281;34.132;-118.018;2023-04-25T02:58:27;99677.38;;;19.38;63.94
50368;BME280;36281;34.132;-118.018;2023-04-25T03:00:58;99689.47;;;19.41;63.86
50368;BME280;36281;34.132;-118.018;2023-04-25T03:03:27;99687.59;;;19.36;63.97
50368;BME280;36281;34.132;-118.018;2023-04-25T03:05:56;99696.19;;;19.33;64.28
50368;BME280;36281;34.132;-118.018;2023-04-25T03:08:25;99697.28;;;19.27;64.32
50368;BME280;36281;34.132;-118.018;2023-04-25T03:10:58;99701.06;;;19.21;64.76
50368;BME280;36281;34.132;-118.018;2023-04-25T03:13:27;99703.47;;;19.17;65.12
50368;BME280;36281;34.132;-118.018;2023-04-25T03:15:59;99695.44;;;19.12;65.24
50368;BME280;36281;34.132;-118.018;2023-04-25T03:18:29;99693.84;;;19.01;65.62
50368;BME280;36281;34.132;-118.018;2023-04-25T03:20:58;99693.06;;;18.95;65.91
50368;BME280;36281;34.132;-118.018;2023-04-25T03:23:27;99707.53;;;18.94;66.20
50368;BME280;36281;34.132;-118.018;2023-04-25T03:25:56;99710.50;;;18.93;66.58
50368;BME280;36281;34.132;-118.018;2023-04-25T03:28:25;99705.13;;;18.88;66.96
50368;BME280;36281;34.132;-118.018;2023-04-25T03:30:54;99709.72;;;18.77;67.04
50368;BME280;36281;34.132;-118.018;2023-04-25T03:33:25;99725.22;;;18.65;67.58
50368;BME280;36281;34.132;-118.018;2023-04-25T03:35:54;99723.63;;;18.64;67.75
50368;BME280;36281;34.132;-118.018;2023-04-25T03:38:23;99720.94;;;18.64;68.01
50368;BME280;36281;34.132;-118.018;2023-04-25T03:40:52;99726.06;;;18.55;68.12
50368;BME280;36281;34.132;-118.018;2023-04-25T03:43:21;99736.50;;;18.51;68.57
50368;BME280;36281;34.132;-118.018;2023-04-25T03:45:51;99725.22;;;18.49;68.81
50368;BME280;36281;34.132;-118.018;2023-04-25T03:48:20;99731.41;;;18.50;68.84
50368;BME280;36281;34.132;-118.018;2023-04-25T03:50:55;99733.81;;;18.46;69.00
50368;BME280;36281;34.132;-118.018;2023-04-25T03:53:24;99738.91;;;18.43;68.85
50368;BME280;36281;34.132;-118.018;2023-04-25T03:55:53;99741.84;;;18.41;68.93
50368;BME280;36281;34.132;-118.018;2023-04-25T03:58:22;99745.34;;;18.37;68.76
50368;BME280;36281;34.132;-118.018;2023-04-25T04:00:52;99752.56;;;18.31;69.23
50368;BME280;36281;34.132;-118.018;2023-04-25T04:03:21;99754.16;;;18.22;69.14
50368;BME280;36281;34.132;-118.018;2023-04-25T04:05:51;99755.22;;;18.21;69.44
50368;BME280;36281;34.132;-118.018;2023-04-25T04:08:22;99760.56;;;18.16;69.69
50368;BME280;36281;34.132;-118.018;2023-04-25T04:10:51;99768.06;;;18.14;69.75
50368;BME280;36281;34.132;-118.018;2023-04-25T04:13:20;99762.16;;;18.06;69.90
50368;BME280;36281;34.132;-118.018;2023-04-25T04:15:49;99773.38;;;18.03;70.11
50368;BME280;36281;34.132;-118.018;2023-04-25T04:18:19;99778.72;;;17.98;70.42
50368;BME280;36281;34.132;-118.018;2023-04-25T04:20:48;99774.41;;;17.92;70.46
50368;BME280;36281;34.132;-118.018;2023-04-25T04:23:17;99783.50;;;17.86;70.82
50368;BME280;36281;34.132;-118.018;2023-04-25T04:25:48;99788.31;;;17.84;70.73
50368;BME280;36281;34.132;-118.018;2023-04-25T04:28:17;99784.00;;;17.78;71.08
50368;BME280;36281;34.132;-118.018;2023-04-25T04:30:46;99778.84;;;17.71;71.33
50368;BME280;36281;34.132;-118.018;2023-04-25T04:33:15;99780.72;;;17.71;71.34
50368;BME280;36281;34.132;-118.018;2023-04-25T04:35:44;99782.31;;;17.67;71.66
50368;BME280;36281;34.132;-118.018;2023-04-25T04:38:13;99780.13;;;17.58;71.74
50368;BME280;36281;34.132;-118.018;2023-04-25T04:40:43;99785.44;;;17.53;72.06
50368;BME280;36281;34.132;-118.018;2023-04-25T04:43:14;99786.75;;;17.46;72.22
50368;BME280;36281;34.132;-118.018;2023-04-25T04:45:45;99785.91;;;17.40;72.62
50368;BME280;36281;34.132;-118.018;2023-04-25T04:48:14;99782.16;;;17.36;72.75
50368;BME280;36281;34.132;-118.018;2023-04-25T04:50:43;99790.94;;;17.31;73.17
50368;BME280;36281;34.132;-118.018;2023-04-25T04:53:16;99786.91;;;17.29;73.10
50368;BME280;36281;34.132;-118.018;2023-04-25T04:55:45;99785.22;;;17.18;73.43
50368;BME280;36281;34.132;-118.018;2023-04-25T04:58:16;99787.13;;;17.22;73.62
50368;BME280;36281;34.132;-118.018;2023-04-25T05:00:46;99794.34;;;17.22;73.68
50368;BME280;36281;34.132;-118.018;2023-04-25T05:03:15;99788.72;;;17.18;73.95
50368;BME280;36281;34.132;-118.018;2023-04-25T05:05:44;99793.47;;;17.11;74.20
50368;BME280;36281;34.132;-118.018;2023-04-25T05:08:14;99794.25;;;17.07;74.57
50368;BME280;36281;34.132;-118.018;2023-04-25T05:10:43;99789.91;;;17.00;74.67
50368;BME280;36281;34.132;-118.018;2023-04-25T05:13:12;99789.84;;;16.95;75.03
50368;BME280;36281;34.132;-118.018;2023-04-25T05:15:43;99784.41;;;16.85;75.21
50368;BME280;36281;34.132;-118.018;2023-04-25T05:18:12;99784.41;;;16.85;75.43
50368;BME280;36281;34.132;-118.018;2023-04-25T05:20:41;99793.50;;;16.84;75.80
50368;BME280;36281;34.132;-118.018;2023-04-25T05:23:10;99785.22;;;16.86;76.06
50368;BME280;36281;34.132;-118.018;2023-04-25T05:25:39;99804.25;;;16.89;76.18
50368;BME280;36281;34.132;-118.018;2023-04-25T05:28:08;99791.44;;;16.91;76.24
50368;BME280;36281;34.132;-118.018;2023-04-25T05:30:37;99788.25;;;16.94;76.07
50368;BME280;36281;34.132;-118.018;2023-04-25T05:33:08;99794.16;;;16.96;76.19
50368;BME280;36281;34.132;-118.018;2023-04-25T05:35:37;99802.69;;;16.93;76.15
50368;BME280;36281;34.132;-118.018;2023-04-25T05:38:06;99803.81;;;16.97;76.30
50368;BME280;36281;34.132;-118.018;2023-04-25T05:40:35;99798.44;;;16.97;76.12
50368;BME280;36281;34.132;-118.018;2023-04-25T05:43:04;99796.56;;;16.98;76.16
50368;BME280;36281;34.132;-118.018;2023-04-25T05:45:33;99799.00;;;16.99;76.19
50368;BME280;36281;34.132;-118.018;2023-04-25T05:48:03;99808.13;;;17.03;76.12
50368;BME280;36281;34.132;-118.018;2023-04-25T05:50:34;99804.38;;;17.04;76.00
50368;BME280;36281;34.132;-118.018;2023-04-25T05:53:03;99812.44;;;17.10;76.08
50368;BME280;36281;34.132;-118.018;2023-04-25T05:55:34;99779.38;;;16.89;75.89
50368;BME280;36281;34.132;-118.018;2023-04-25T05:58:04;99808.47;;;17.12;75.83
50368;BME280;36281;34.132;-118.018;2023-04-25T06:00:33;99798.31;;;17.14;75.78
50368;BME280;36281;34.132;-118.018;2023-04-25T06:03:03;99801.78;;;17.15;75.56
50368;BME280;36281;34.132;-118.018;2023-04-25T06:05:34;99799.69;;;17.17;75.44
50368;BME280;36281;34.132;-118.018;2023-04-25T06:08:03;99797.53;;;17.19;75.50
50368;BME280;36281;34.132;-118.018;2023-04-25T06:10:32;99801.28;;;17.18;75.20
50368;BME280;36281;34.132;-118.018;2023-04-25T06:13:01;99801.53;;;17.16;75.15
50368;BME280;36281;34.132;-118.018;2023-04-25T06:15:31;99805.00;;;17.12;75.18
50368;BME280;36281;34.132;-118.018;2023-04-25T06:18:03;99811.94;;;17.13;75.29
50368;BME280;36281;34.132;-118.018;2023-04-25T06:20:35;99802.84;;;17.14;75.26
50368;BME280;36281;34.132;-118.018;2023-04-25T06:23:04;99802.84;;;17.14;75.24
50368;BME280;36281;34.132;-118.018;2023-04-25T06:25:33;99803.63;;;17.09;75.60
50368;BME280;36281;34.132;-118.018;2023-04-25T06:28:03;99811.16;;;17.12;75.41
50368;BME280;36281;34.132;-118.018;2023-04-25T06:30:32;99802.31;;;17.12;75.41
50368;BME280;36281;34.132;-118.018;2023-04-25T06:33:01;99797.50;;;17.14;75.37
50368;BME280;36281;34.132;-118.018;2023-04-25T06:35:30;99798.59;;;17.18;75.21
50368;BME280;36281;34.132;-118.018;2023-04-25T06:38:00;99804.75;;;17.18;74.97
50368;BME280;36281;34.132;-118.018;2023-04-25T06:40:29;99799.69;;;17.17;74.85
50368;BME280;36281;34.132;-118.018;2023-04-25T06:42:58;99795.13;;;17.17;74.80
50368;BME280;36281;34.132;-118.018;2023-04-25T06:45:27;99805.25;;;17.15;75.06
50368;BME280;36281;34.132;-118.018;2023-04-25T06:47:57;99805.00;;;17.12;75.01
50368;BME280;36281;34.132;-118.018;2023-04-25T06:50:26;99805.00;;;17.12;75.15
50368;BME280;36281;34.132;-118.018;2023-04-25T06:52:55;99806.59;;;17.13;75.14
50368;BME280;36281;34.132;-118.018;2023-04-25T06:55:26;99799.63;;;17.12;75.14
50368;BME280;36281;34.132;-118.018;2023-04-25T06:57:55;99805.53;;;17.14;75.02
50368;BME280;36281;34.132;-118.018;2023-04-25T07:00:25;99800.19;;;17.14;75.05
50368;BME280;36281;34.132;-118.018;2023-04-25T07:02:54;99797.50;;;17.14;74.96
50368;BME280;36281;34.132;-118.018;2023-04-25T07:05:23;99795.09;;;17.12;75.11
50368;BME280;36281;34.132;-118.018;2023-04-25T07:07:52;99743.75;;;16.83;74.99
50368;BME280;36281;34.132;-118.018;2023-04-25T07:10:21;99791.59;;;17.12;74.97
50368;BME280;36281;34.132;-118.018;2023-04-25T07:12:52;99791.56;;;17.07;74.99
50368;BME280;36281;34.132;-118.018;2023-04-25T07:15:21;99799.34;;;17.08;75.08
50368;BME280;36281;34.132;-118.018;2023-04-25T07:17:50;99802.28;;;17.07;75.20
50368;BME280;36281;34.132;-118.018;2023-04-25T07:20:20;99796.63;;;17.03;75.15
50368;BME280;36281;34.132;-118.018;2023-04-25T07:22:49;99804.38;;;17.04;75.20
50368;BME280;36281;34.132;-118.018;2023-04-25T07:25:19;99788.00;;;16.96;75.42
50368;BME280;36281;34.132;-118.018;2023-04-25T07:27:49;99806.50;;;17.02;75.24
50368;BME280;36281;34.132;-118.018;2023-04-25T07:30:20;99802.78;;;17.03;75.67
50368;BME280;36281;34.132;-118.018;2023-04-25T07:32:49;99797.97;;;17.05;75.57
50368;BME280;36281;34.132;-118.018;2023-04-25T07:35:18;99803.31;;;17.05;75.43
50368;BME280;36281;34.132;-118.018;2023-04-25T07:37:47;99809.22;;;17.08;75.55
50368;BME280;36281;34.132;-118.018;2023-04-25T07:40:17;99809.78;;;17.10;75.51
50368;BME280;36281;34.132;-118.018;2023-04-25T07:42:46;99800.13;;;17.09;75.72
50368;BME280;36281;34.132;-118.018;2023-04-25T07:45:15;99798.25;;;17.09;75.49
50368;BME280;36281;34.132;-118.018;2023-04-25T07:47:46;99800.13;;;17.09;75.54
50368;BME280;36281;34.132;-118.018;2023-04-25T07:50:15;99787.22;;;17.00;75.59
50368;BME280;36281;34.132;-118.018;2023-04-25T07:52:44;99802.28;;;17.07;75.57
50368;BME280;36281;34.132;-118.018;2023-04-25T07:55:13;99796.66;;;17.08;75.68
50368;BME280;36281;34.132;-118.018;2023-04-25T07:57:42;99802.50;;;17.05;75.78
50368;BME280;36281;34.132;-118.018;2023-04-25T08:00:12;99799.03;;;17.04;75.92
50368;BME280;36281;34.132;-118.018;2023-04-25T08:02:43;99791.81;;;17.05;76.06
50368;BME280;36281;34.132;-118.018;2023-04-25T08:05:14;99788.09;;;17.06;76.02
50368;BME280;36281;34.132;-118.018;2023-04-25T08:07:48;99772.81;;;17.01;75.87
50368;BME280;36281;34.132;-118.018;2023-04-25T08:10:18;99784.59;;;17.05;75.97
50368;BME280;36281;34.132;-118.018;2023-04-25T08:12:47;99777.63;;;17.04;75.99
50368;BME280;36281;34.132;-118.018;2023-04-25T08:15:17;99773.34;;;17.03;76.26
50368;BME280;36281;34.132;-118.018;2023-04-25T08:17:46;99775.47;;;17.01;76.21
50368;BME280;36281;34.132;-118.018;2023-04-25T08:20:16;99769.56;;;16.99;76.22
50368;BME280;36281;34.132;-118.018;2023-04-25T08:22:46;99769.81;;;16.98;76.24
50368;BME280;36281;34.132;-118.018;2023-04-25T08:25:17;99769.28;;;16.96;76.40
50368;BME280;36281;34.132;-118.018;2023-04-25T08:27:46;99760.69;;;16.94;76.51
50368;BME280;36281;34.132;-118.018;2023-04-25T08:30:15;99765.25;;;16.93;76.42
50368;BME280;36281;34.132;-118.018;2023-04-25T08:32:44;99763.91;;;16.91;76.31
50368;BME280;36281;34.132;-118.018;2023-04-25T08:35:13;99757.19;;;16.88;76.43
50368;BME280;36281;34.132;-118.018;2023-04-25T08:37:44;99762.78;;;16.87;76.64
50368;BME280;36281;34.132;-118.018;2023-04-25T08:40:14;99751.53;;;16.85;76.76
50368;BME280;36281;34.132;-118.018;2023-04-25T08:42:44;99757.69;;;16.85;76.76
50368;BME280;36281;34.132;-118.018;2023-04-25T08:45:14;99763.03;;;16.85;76.90
50368;BME280;36281;34.132;-118.018;2023-04-25T08:47:45;99749.91;;;16.84;76.99
50368;BME280;36281;34.132;-118.018;2023-04-25T08:50:17;99749.38;;;16.82;77.29
50368;BME280;36281;34.132;-118.018;2023-04-25T08:52:53;99748.31;;;16.83;77.29
50368;BME280;36281;34.132;-118.018;2023-04-25T08:55:23;99741.88;;;16.84;77.33
50368;BME280;36281;34.132;-118.018;2023-04-25T08:57:55;99743.75;;;16.83;77.15
50368;BME280;36281;34.132;-118.018;2023-04-25T09:00:25;99744.25;;;16.80;77.21
50368;BME280;36281;34.132;-118.018;2023-04-25T09:02:55;99749.63;;;16.80;77.36
50368;BME280;36281;34.132;-118.018;2023-04-25T09:05:25;99748.81;;;16.79;77.31
50368;BME280;36281;34.132;-118.018;2023-04-25T09:07:56;99742.38;;;16.80;77.37
50368;BME280;36281;34.132;-118.018;2023-04-25T09:10:26;99742.91;;;16.77;77.46
50368;BME280;36281;34.132;-118.018;2023-04-25T09:13:06;99739.97;;;16.79;77.43
50368;BME280;36281;34.132;-118.018;2023-04-25T09:15:47;99739.66;;;16.75;77.44
50368;BME280;36281;34.132;-118.018;2023-04-25T09:18:27;99732.72;;;16.74;77.69
50368;BME280;36281;34.132;-118.018;2023-04-25T09:21:04;99734.09;;;16.77;77.65
50368;BME280;36281;34.132;-118.018;2023-04-25T09:23:44;99737.25;;;16.74;77.56
50368;BME280;36281;34.132;-118.018;2023-04-25T09:26:15;99727.91;;;16.71;77.73
50368;BME280;36281;34.132;-118.018;2023-04-25T09:28:45;99729.16;;;16.69;77.80
50368;BME280;36281;34.132;-118.018;2023-04-25T09:31:22;99725.97;;;16.67;77.93
50368;BME280;36281;34.132;-118.018;2023-04-25T09:33:59;99726.75;;;16.67;77.84
50368;BME280;36281;34.132;-118.018;2023-04-25T09:36:30;99723.28;;;16.67;77.99
50368;BME280;36281;34.132;-118.018;2023-04-25T09:39:01;99726.75;;;16.67;78.13
50368;BME280;36281;34.132;-118.018;2023-04-25T09:41:32;99722.47;;;16.66;78.01
50368;BME280;36281;34.132;-118.018;2023-04-25T09:44:06;99716.56;;;16.64;78.06
50368;BME280;36281;34.132;-118.018;2023-04-25T09:46:35;99708.81;;;16.63;78.06
50368;BME280;36281;34.132;-118.018;2023-04-25T09:49:07;99721.66;;;16.66;78.17
50368;BME280;36281;34.132;-118.018;2023-04-25T09:51:36;99708.22;;;16.61;78.19
50368;BME280;36281;34.132;-118.018;2023-04-25T09:54:07;99718.97;;;16.66;78.07
50368;BME280;36281;34.132;-118.018;2023-04-25T09:56:37;99712.53;;;16.62;78.07
50368;BME280;36281;34.132;-118.018;2023-04-25T09:59:07;99714.69;;;16.65;78.00
50368;BME280;36281;34.132;-118.018;2023-04-25T10:01:40;99717.63;;;16.63;78.17
50368;BME280;36281;34.132;-118.018;2023-04-25T10:04:11;99717.91;;;16.62;78.63
50368;BME280;36281;34.132;-118.018;2023-04-25T10:06:41;99724.03;;;16.62;78.56
50368;BME280;36281;34.132;-118.018;2023-04-25T10:09:14;99726.19;;;16.65;78.44
50368;BME280;36281;34.132;-118.018;2023-04-25T10:11:45;99728.88;;;16.65;78.35
50368;BME280;36281;34.132;-118.018;2023-04-25T10:14:16;99738.53;;;16.66;78.33
50368;BME280;36281;34.132;-118.018;2023-04-25T10:16:46;99731.31;;;16.67;78.21
50368;BME280;36281;34.132;-118.018;2023-04-25T10:19:16;99732.34;;;16.66;78.34
50368;BME280;36281;34.132;-118.018;2023-04-25T10:21:50;99736.66;;;16.67;78.38
50368;BME280;36281;34.132;-118.018;2023-04-25T10:24:21;99748.38;;;16.66;78.45
50368;BME280;36281;34.132;-118.018;2023-04-25T10:26:51;99741.75;;;16.68;78.43
50368;BME280;36281;34.132;-118.018;2023-04-25T10:29:24;99738.00;;;16.69;78.49
50368;BME280;36281;34.132;-118.018;2023-04-25T10:31:54;99738.25;;;16.68;78.46
50368;BME280;36281;34.132;-118.018;2023-04-25T10:34:39;99737.19;;;16.69;78.47
50368;BME280;36281;34.132;-118.018;2023-04-25T10:37:12;99742.53;;;16.69;78.56
50368;BME280;36281;34.132;-118.018;2023-04-25T10:39:43;99734.78;;;16.67;78.36
50368;BME280;36281;34.132;-118.018;2023-04-25T10:42:13;99741.19;;;16.66;78.23
50368;BME280;36281;34.132;-118.018;2023-04-25T10:45:01;99743.00;;;16.61;78.27
50368;BME280;36281;34.132;-118.018;2023-04-25T10:47:36;99739.78;;;16.59;78.42
50368;BME280;36281;34.132;-118.018;2023-04-25T10:50:13;99735.50;;;16.58;78.52
50368;BME280;36281;34.132;-118.018;2023-04-25T10:52:43;99736.81;;;16.55;78.72
50368;BME280;36281;34.132;-118.018;2023-04-25T10:55:17;99724.50;;;16.54;78.71
50368;BME280;36281;34.132;-118.018;2023-04-25T10:57:46;99728.78;;;16.55;78.84
50368;BME280;36281;34.132;-118.018;2023-04-25T11:00:18;99726.38;;;16.53;79.01
50368;BME280;36281;34.132;-118.018;2023-04-25T11:02:52;99722.59;;;16.49;78.94
50368;BME280;36281;34.132;-118.018;2023-04-25T11:05:24;99731.19;;;16.51;78.95
50368;BME280;36281;34.132;-118.018;2023-04-25T11:08:00;99732.22;;;16.50;79.03
50368;BME280;36281;34.132;-118.018;2023-04-25T11:10:36;99723.91;;;16.47;79.32
50368;BME280;36281;34.132;-118.018;2023-04-25T11:13:06;99732.97;;;16.46;79.63
50368;BME280;36281;34.132;-118.018;2023-04-25T11:15:35;99727.88;;;16.44;79.66
50368;BME280;36281;34.132;-118.018;2023-04-25T11:18:04;99727.88;;;16.44;79.55
50368;BME280;36281;34.132;-118.018;2023-04-25T11:20:33;99728.94;;;16.43;79.59
50368;BME280;36281;34.132;-118.018;2023-04-25T11:23:02;99739.66;;;16.43;79.87
50368;BME280;36281;34.132;-118.018;2023-04-25T11:25:38;99739.38;;;16.45;79.94
50368;BME280;36281;34.132;-118.018;2023-04-25T11:28:07;99741.00;;;16.46;79.91
50368;BME280;36281;34.132;-118.018;2023-04-25T11:30:36;99737.81;;;16.49;79.84
50368;BME280;36281;34.132;-118.018;2023-04-25T11:33:05;99741.28;;;16.49;79.56
50368;BME280;36281;34.132;-118.018;2023-04-25T11:35:35;99742.38;;;16.48;79.43
50368;BME280;36281;34.132;-118.018;2023-04-25T11:38:04;99744.50;;;16.46;79.35
50368;BME280;36281;34.132;-118.018;2023-04-25T11:40:34;99739.16;;;16.46;79.27
50368;BME280;36281;34.132;-118.018;2023-04-25T11:43:06;99739.16;;;16.46;79.10
50368;BME280;36281;34.132;-118.018;2023-04-25T11:45:37;99737.50;;;16.45;79.57
50368;BME280;36281;34.132;-118.018;2023-04-25T11:48:06;99734.31;;;16.43;79.44
50368;BME280;36281;34.132;-118.018;2023-04-25T11:50:35;99731.09;;;16.41;79.49
50368;BME280;36281;34.132;-118.018;2023-04-25T11:53:04;99734.31;;;16.43;79.38
50368;BME280;36281;34.132;-118.018;2023-04-25T11:55:34;99727.88;;;16.44;79.40
50368;BME280;36281;34.132;-118.018;2023-04-25T11:58:06;99732.97;;;16.46;79.21
50368;BME280;36281;34.132;-118.018;2023-04-25T12:00:37;99725.16;;;16.39;79.14
50368;BME280;36281;34.132;-118.018;2023-04-25T12:03:18;99721.47;;;16.45;79.12
50368;BME280;36281;34.132;-118.018;2023-04-25T12:05:48;99718.81;;;16.45;79.13
50368;BME280;36281;34.132;-118.018;2023-04-25T12:08:17;99718.56;;;16.47;79.26
50368;BME280;36281;34.132;-118.018;2023-04-25T12:10:46;99724.72;;;16.47;79.39
50368;BME280;36281;34.132;-118.018;2023-04-25T12:13:24;99716.94;;;16.46;79.47
50368;BME280;36281;34.132;-118.018;2023-04-25T12:15:54;99717.50;;;16.48;79.50
50368;BME280;36281;34.132;-118.018;2023-04-25T12:18:25;99718.31;;;16.48;79.41
50368;BME280;36281;34.132;-118.018;2023-04-25T12:20:57;99710.28;;;16.48;79.32
50368;BME280;36281;34.132;-118.018;2023-04-25T12:23:27;99717.81;;;16.51;79.09
50368;BME280;36281;34.132;-118.018;2023-04-25T12:25:56;99714.03;;;16.47;79.19
50368;BME280;36281;34.132;-118.018;2023-04-25T12:28:28;99711.59;;;16.46;79.53
50368;BME280;36281;34.132;-118.018;2023-04-25T12:30:58;99710.78;;;16.45;79.50
50368;BME280;36281;34.132;-118.018;2023-04-25T12:33:30;99707.88;;;16.47;79.55
50368;BME280;36281;34.132;-118.018;2023-04-25T12:36:00;99703.81;;;16.44;79.67
50368;BME280;36281;34.132;-118.018;2023-04-25T12:38:37;99711.31;;;16.42;79.84
50368;BME280;36281;34.132;-118.018;2023-04-25T12:41:07;99707.25;;;16.40;79.92
50368;BME280;36281;34.132;-118.018;2023-04-25T12:43:38;99711.25;;;16.37;80.21
50368;BME280;36281;34.132;-118.018;2023-04-25T12:46:07;99711.25;;;16.37;80.26